sensor_id;sensor_type;location;lat;lon;timestamp;P1;durP1;ratioP1;P2;durP2;ratioP2
26562;SDS011;14217;50.986;5.826;2023-07-31T00:00:02;2.85;;;1.02;;
26562;SDS011;14217;50.986;5.826;2023-07-31T00:05:07;1.05;;;0.80;;
26562;SDS011;14217;50.986;5.826;2023-07-31T00:10:10;7.97;;;1.20;;
26562;SDS011;14217;50.986;5.826;2023-07-31T00:15:13;1.08;;;0.82;;
26562;SDS011;14217;50.986;5.826;2023-07-31T00:20:16;2.05;;;1.27;;
26562;SDS011;14217;50.986;5.826;2023-07-31T00:25:21;1.05;;;0.90;;
26562;SDS011;14217;50.986;5.826;2023-07-31T00:30:23;1.23;;;0.80;;
26562;SDS011;14217;50.986;5.826;2023-07-31T00:35:26;1.13;;;0.93;;
26562;SDS011;14217;50.986;5.826;2023-07-31T00:40:29;1.23;;;1.05;;
26562;SDS011;14217;50.986;5.826;2023-07-31T00:45:31;1.30;;;0.80;;
26562;SDS011;14217;50.986;5.826;2023-07-31T00:50:34;1.67;;;1.00;;
26562;SDS011;14217;50.986;5.826;2023-07-31T00:55:42;1.30;;;1.20;;
26562;SDS011;14217;50.986;5.826;2023-07-31T01:00:47;1.85;;;0.77;;
26562;SDS011;14217;50.986;5.826;2023-07-31T01:06:33;1.20;;;0.75;;
26562;SDS011;14217;50.986;5.826;2023-07-31T01:11:30;2.90;;;1.00;;
26562;SDS011;14217;50.986;5.826;2023-07-31T01:16:38;1.10;;;0.90;;
26562;SDS011;14217;50.986;5.826;2023-07-31T01:22:11;2.90;;;1.40;;
26562;SDS011;14217;50.986;5.826;2023-07-31T01:27:34;1.58;;;0.82;;
26562;SDS011;14217;50.986;5.826;2023-07-31T01:32:42;1.33;;;0.98;;
26562;SDS011;14217;50.986;5.826;2023-07-31T01:37:45;3.28;;;0.90;;
26562;SDS011;14217;50.986;5.826;2023-07-31T01:42:47;2.20;;;1.10;;
26562;SDS011;14217;50.986;5.826;2023-07-31T01:47:50;1.30;;;0.90;;
26562;SDS011;14217;50.986;5.826;2023-07-31T01:52:55;0.60;;;0.57;;
26562;SDS011;14217;50.986;5.826;2023-07-31T01:57:57;1.40;;;1.00;;
26562;SDS011;14217;50.986;5.826;2023-07-31T02:02:59;1.48;;;0.82;;
26562;SDS011;14217;50.986;5.826;2023-07-31T02:08:01;1.33;;;0.77;;
26562;SDS011;14217;50.986;5.826;2023-07-31T02:13:06;0.88;;;0.70;;
26562;SDS011;14217;50.986;5.826;2023-07-31T02:18:09;1.38;;;0.90;;
26562;SDS011;14217;50.986;5.826;2023-07-31T02:23:11;1.45;;;0.93;;
26562;SDS011;14217;50.986;5.826;2023-07-31T02:28:16;1.42;;;0.70;;
26562;SDS011;14217;50.986;5.826;2023-07-31T02:33:18;1.50;;;0.80;;
26562;SDS011;14217;50.986;5.826;2023-07-31T02:38:21;1.20;;;0.70;;
26562;SDS011;14217;50.986;5.826;2023-07-31T02:43:23;1.58;;;0.68;;
26562;SDS011;14217;50.986;5.826;2023-07-31T02:48:25;2.00;;;0.90;;
26562;SDS011;14217;50.986;5.826;2023-07-31T02:53:29;0.75;;;0.75;;
26562;SDS011;14217;50.986;5.826;2023-07-31T02:58:31;0.80;;;0.80;;
26562;SDS011;14217;50.986;5.826;2023-07-31T03:03:34;1.08;;;0.63;;
26562;SDS011;14217;50.986;5.826;2023-07-31T03:08:36;0.93;;;0.80;;
26562;SDS011;14217;50.986;5.826;2023-07-31T03:13:38;0.82;;;0.77;;
26562;SDS011;14217;50.986;5.826;2023-07-31T03:18:40;0.75;;;0.63;;
26562;SDS011;14217;50.986;5.826;2023-07-31T03:23:42;2.03;;;0.82;;
26562;SDS011;14217;50.986;5.826;2023-07-31T03:28:45;0.65;;;0.50;;
26562;SDS011;14217;50.986;5.826;2023-07-31T03:33:47;1.13;;;0.90;;
26562;SDS011;14217;50.986;5.826;2023-07-31T03:38:51;0.77;;;0.70;;
26562;SDS011;14217;50.986;5.826;2023-07-31T03:43:54;1.40;;;1.02;;
26562;SDS011;14217;50.986;5.826;2023-07-31T03:48:57;2.00;;;1.00;;
26562;SDS011;14217;50.986;5.826;2023-07-31T03:54:00;1.92;;;1.00;;
26562;SDS011;14217;50.986;5.826;2023-07-31T03:59:02;1.02;;;0.70;;
26562;SDS011;14217;50.986;5.826;2023-07-31T04:04:04;1.52;;;1.10;;
26562;SDS011;14217;50.986;5.826;2023-07-31T04:09:07;0.75;;;0.73;;
26562;SDS011;14217;50.986;5.826;2023-07-31T04:14:09;2.50;;;0.80;;
26562;SDS011;14217;50.986;5.826;2023-07-31T04:19:11;1.25;;;1.00;;
26562;SDS011;14217;50.986;5.826;2023-07-31T04:24:18;1.13;;;0.90;;
26562;SDS011;14217;50.986;5.826;2023-07-31T04:29:25;1.52;;;1.10;;
26562;SDS011;14217;50.986;5.826;2023-07-31T04:34:27;1.20;;;1.10;;
26562;SDS011;14217;50.986;5.826;2023-07-31T04:39:29;1.75;;;1.25;;
26562;SDS011;14217;50.986;5.826;2023-07-31T04:44:32;2.42;;;0.90;;
26562;SDS011;14217;50.986;5.826;2023-07-31T04:49:37;0.90;;;0.90;;
26562;SDS011;14217;50.986;5.826;2023-07-31T04:54:42;2.25;;;0.98;;
26562;SDS011;14217;50.986;5.826;2023-07-31T04:59:44;1.13;;;1.00;;
26562;SDS011;14217;50.986;5.826;2023-07-31T05:04:48;0.80;;;0.80;;
26562;SDS011;14217;50.986;5.826;2023-07-31T05:09:50;0.70;;;0.70;;
26562;SDS011;14217;50.986;5.826;2023-07-31T05:14:53;1.80;;;1.17;;
26562;SDS011;14217;50.986;5.826;2023-07-31T05:19:55;0.90;;;0.90;;
26562;SDS011;14217;50.986;5.826;2023-07-31T05:24:57;1.15;;;0.85;;
26562;SDS011;14217;50.986;5.826;2023-07-31T05:29:59;1.00;;;0.88;;
26562;SDS011;14217;50.986;5.826;2023-07-31T05:35:01;1.30;;;0.93;;
26562;SDS011;14217;50.986;5.826;2023-07-31T05:40:03;2.72;;;0.65;;
26562;SDS011;14217;50.986;5.826;2023-07-31T05:45:06;2.60;;;0.90;;
26562;SDS011;14217;50.986;5.826;2023-07-31T05:50:09;1.17;;;0.88;;
26562;SDS011;14217;50.986;5.826;2023-07-31T05:55:10;1.38;;;0.82;;
26562;SDS011;14217;50.986;5.826;2023-07-31T06:00:13;0.80;;;0.80;;
26562;SDS011;14217;50.986;5.826;2023-07-31T06:05:15;1.35;;;0.98;;
26562;SDS011;14217;50.986;5.826;2023-07-31T06:10:17;1.85;;;0.70;;
26562;SDS011;14217;50.986;5.826;2023-07-31T06:15:20;0.60;;;0.60;;
26562;SDS011;14217;50.986;5.826;2023-07-31T06:20:22;0.68;;;0.68;;
26562;SDS011;14217;50.986;5.826;2023-07-31T06:25:24;0.98;;;0.75;;
26562;SDS011;14217;50.986;5.826;2023-07-31T06:30:26;1.85;;;1.00;;
26562;SDS011;14217;50.986;5.826;2023-07-31T06:35:28;1.05;;;0.70;;
26562;SDS011;14217;50.986;5.826;2023-07-31T06:40:30;0.75;;;0.68;;
26562;SDS011;14217;50.986;5.826;2023-07-31T06:45:36;1.55;;;1.00;;
26562;SDS011;14217;50.986;5.826;2023-07-31T06:50:38;0.82;;;0.73;;
26562;SDS011;14217;50.986;5.826;2023-07-31T06:55:40;1.02;;;0.80;;
26562;SDS011;14217;50.986;5.826;2023-07-31T07:00:42;1.45;;;0.90;;
26562;SDS011;14217;50.986;5.826;2023-07-31T07:05:44;1.05;;;0.70;;
26562;SDS011;14217;50.986;5.826;2023-07-31T07:10:46;1.30;;;0.85;;
26562;SDS011;14217;50.986;5.826;2023-07-31T07:15:49;1.02;;;0.75;;
26562;SDS011;14217;50.986;5.826;2023-07-31T07:20:52;0.73;;;0.70;;
26562;SDS011;14217;50.986;5.826;2023-07-31T07:25:55;1.55;;;1.17;;
26562;SDS011;14217;50.986;5.826;2023-07-31T07:30:57;0.70;;;0.65;;
26562;SDS011;14217;50.986;5.826;2023-07-31T07:36:00;2.05;;;1.20;;
26562;SDS011;14217;50.986;5.826;2023-07-31T07:41:03;1.13;;;0.80;;
26562;SDS011;14217;50.986;5.826;2023-07-31T07:46:05;1.05;;;0.95;;
26562;SDS011;14217;50.986;5.826;2023-07-31T07:51:07;2.28;;;0.90;;
26562;SDS011;14217;50.986;5.826;2023-07-31T07:56:09;1.88;;;1.20;;
26562;SDS011;14217;50.986;5.826;2023-07-31T08:01:11;2.65;;;1.30;;
26562;SDS011;14217;50.986;5.826;2023-07-31T08:06:14;2.22;;;1.20;;
26562;SDS011;14217;50.986;5.826;2023-07-31T08:11:16;1.95;;;1.05;;
26562;SDS011;14217;50.986;5.826;2023-07-31T08:16:18;2.40;;;1.15;;
26562;SDS011;14217;50.986;5.826;2023-07-31T08:21:21;4.85;;;1.42;;
26562;SDS011;14217;50.986;5.826;2023-07-31T08:26:24;1.75;;;1.30;;
26562;SDS011;14217;50.986;5.826;2023-07-31T08:31:26;8.75;;;1.27;;
26562;SDS011;14217;50.986;5.826;2023-07-31T08:36:28;3.15;;;1.42;;
26562;SDS011;14217;50.986;5.826;2023-07-31T08:41:31;1.10;;;0.90;;
26562;SDS011;14217;50.986;5.826;2023-07-31T08:46:33;3.85;;;1.10;;
26562;SDS011;14217;50.986;5.826;2023-07-31T08:51:36;2.55;;;1.10;;
26562;SDS011;14217;50.986;5.826;2023-07-31T08:56:38;3.40;;;1.52;;
26562;SDS011;14217;50.986;5.826;2023-07-31T09:01:43;2.70;;;1.38;;
26562;SDS011;14217;50.986;5.826;2023-07-31T09:06:49;1.52;;;1.10;;
26562;SDS011;14217;50.986;5.826;2023-07-31T09:11:57;2.40;;;1.67;;
26562;SDS011;14217;50.986;5.826;2023-07-31T09:17:00;2.92;;;1.42;;
26562;SDS011;14217;50.986;5.826;2023-07-31T09:22:02;1.80;;;1.38;;
26562;SDS011;14217;50.986;5.826;2023-07-31T09:27:05;3.47;;;1.10;;
26562;SDS011;14217;50.986;5.826;2023-07-31T09:32:17;2.72;;;1.13;;
26562;SDS011;14217;50.986;5.826;2023-07-31T09:37:19;2.25;;;1.30;;
26562;SDS011;14217;50.986;5.826;2023-07-31T09:42:25;1.55;;;1.13;;
26562;SDS011;14217;50.986;5.826;2023-07-31T09:47:28;4.88;;;1.42;;
26562;SDS011;14217;50.986;5.826;2023-07-31T09:52:32;2.88;;;2.00;;
26562;SDS011;14217;50.986;5.826;2023-07-31T09:57:34;3.65;;;3.22;;
26562;SDS011;14217;50.986;5.826;2023-07-31T10:02:41;4.25;;;3.85;;
26562;SDS011;14217;50.986;5.826;2023-07-31T10:07:50;8.43;;;4.88;;
26562;SDS011;14217;50.986;5.826;2023-07-31T10:12:56;5.82;;;4.97;;
26562;SDS011;14217;50.986;5.826;2023-07-31T10:17:58;7.78;;;7.07;;
26562;SDS011;14217;50.986;5.826;2023-07-31T10:23:01;6.07;;;5.40;;
26562;SDS011;14217;50.986;5.826;2023-07-31T10:28:04;5.60;;;5.10;;
26562;SDS011;14217;50.986;5.826;2023-07-31T10:33:07;6.15;;;5.50;;
26562;SDS011;14217;50.986;5.826;2023-07-31T10:38:10;5.28;;;4.50;;
26562;SDS011;14217;50.986;5.826;2023-07-31T10:43:25;5.47;;;4.90;;
26562;SDS011;14217;50.986;5.826;2023-07-31T10:48:32;4.85;;;4.45;;
26562;SDS011;14217;50.986;5.826;2023-07-31T10:53:36;4.50;;;4.10;;
26562;SDS011;14217;50.986;5.826;2023-07-31T10:58:39;3.55;;;2.95;;
26562;SDS011;14217;50.986;5.826;2023-07-31T11:03:45;4.60;;;2.22;;
26562;SDS011;14217;50.986;5.826;2023-07-31T11:08:48;2.28;;;1.65;;
26562;SDS011;14217;50.986;5.826;2023-07-31T11:13:52;1.85;;;1.30;;
26562;SDS011;14217;50.986;5.826;2023-07-31T11:18:56;1.27;;;1.10;;
26562;SDS011;14217;50.986;5.826;2023-07-31T11:23:58;1.00;;;0.90;;
26562;SDS011;14217;50.986;5.826;2023-07-31T11:29:00;1.65;;;0.95;;
26562;SDS011;14217;50.986;5.826;2023-07-31T11:34:05;4.60;;;1.17;;
26562;SDS011;14217;50.986;5.826;2023-07-31T11:39:08;4.97;;;1.15;;
26562;SDS011;14217;50.986;5.826;2023-07-31T11:44:11;1.90;;;1.00;;
26562;SDS011;14217;50.986;5.826;2023-07-31T11:49:28;2.05;;;1.33;;
26562;SDS011;14217;50.986;5.826;2023-07-31T11:54:31;1.35;;;1.02;;
26562;SDS011;14217;50.986;5.826;2023-07-31T11:59:33;1.70;;;1.20;;
26562;SDS011;14217;50.986;5.826;2023-07-31T12:04:35;2.55;;;1.00;;
26562;SDS011;14217;50.986;5.826;2023-07-31T12:09:38;1.33;;;1.17;;
26562;SDS011;14217;50.986;5.826;2023-07-31T12:14:41;1.55;;;1.33;;
26562;SDS011;14217;50.986;5.826;2023-07-31T12:19:44;1.10;;;1.00;;
26562;SDS011;14217;50.986;5.826;2023-07-31T12:24:47;2.75;;;1.23;;
26562;SDS011;14217;50.986;5.826;2023-07-31T12:29:49;1.77;;;1.05;;
26562;SDS011;14217;50.986;5.826;2023-07-31T12:34:51;1.60;;;1.17;;
26562;SDS011;14217;50.986;5.826;2023-07-31T12:39:53;1.83;;;1.17;;
26562;SDS011;14217;50.986;5.826;2023-07-31T12:44:55;2.78;;;1.63;;
26562;SDS011;14217;50.986;5.826;2023-07-31T12:49:57;2.95;;;1.92;;
26562;SDS011;14217;50.986;5.826;2023-07-31T12:55:01;2.22;;;1.40;;
26562;SDS011;14217;50.986;5.826;2023-07-31T13:00:03;2.00;;;1.38;;
26562;SDS011;14217;50.986;5.826;2023-07-31T13:05:06;1.70;;;1.40;;
26562;SDS011;14217;50.986;5.826;2023-07-31T13:10:08;2.40;;;1.55;;
26562;SDS011;14217;50.986;5.826;2023-07-31T13:15:12;2.42;;;1.38;;
26562;SDS011;14217;50.986;5.826;2023-07-31T13:20:14;3.15;;;2.15;;
26562;SDS011;14217;50.986;5.826;2023-07-31T13:25:16;1.45;;;1.30;;
26562;SDS011;14217;50.986;5.826;2023-07-31T13:30:18;2.00;;;1.33;;
26562;SDS011;14217;50.986;5.826;2023-07-31T13:35:21;2.38;;;1.15;;
26562;SDS011;14217;50.986;5.826;2023-07-31T13:40:23;5.90;;;1.45;;
26562;SDS011;14217;50.986;5.826;2023-07-31T13:45:25;3.55;;;1.77;;
26562;SDS011;14217;50.986;5.826;2023-07-31T13:50:27;3.17;;;1.58;;
26562;SDS011;14217;50.986;5.826;2023-07-31T13:55:29;2.08;;;1.17;;
26562;SDS011;14217;50.986;5.826;2023-07-31T14:00:32;2.40;;;1.13;;
26562;SDS011;14217;50.986;5.826;2023-07-31T14:05:34;1.30;;;1.20;;
26562;SDS011;14217;50.986;5.826;2023-07-31T14:10:36;1.15;;;1.08;;
26562;SDS011;14217;50.986;5.826;2023-07-31T14:15:39;2.28;;;1.58;;
26562;SDS011;14217;50.986;5.826;2023-07-31T14:20:43;1.38;;;1.05;;
26562;SDS011;14217;50.986;5.826;2023-07-31T14:25:46;1.95;;;1.45;;
26562;SDS011;14217;50.986;5.826;2023-07-31T14:30:49;2.00;;;1.35;;
26562;SDS011;14217;50.986;5.826;2023-07-31T14:35:51;1.67;;;1.20;;
26562;SDS011;14217;50.986;5.826;2023-07-31T14:40:54;2.92;;;1.15;;
26562;SDS011;14217;50.986;5.826;2023-07-31T14:45:56;2.17;;;1.48;;
26562;SDS011;14217;50.986;5.826;2023-07-31T14:51:01;1.77;;;1.25;;
26562;SDS011;14217;50.986;5.826;2023-07-31T14:56:03;1.63;;;1.27;;
26562;SDS011;14217;50.986;5.826;2023-07-31T15:01:06;1.88;;;1.10;;
26562;SDS011;14217;50.986;5.826;2023-07-31T15:06:08;1.38;;;1.20;;
26562;SDS011;14217;50.986;5.826;2023-07-31T15:11:10;1.48;;;1.17;;
26562;SDS011;14217;50.986;5.826;2023-07-31T15:16:12;1.13;;;1.02;;
26562;SDS011;14217;50.986;5.826;2023-07-31T15:21:14;2.20;;;1.30;;
26562;SDS011;14217;50.986;5.826;2023-07-31T15:26:16;1.73;;;1.20;;
26562;SDS011;14217;50.986;5.826;2023-07-31T15:31:19;4.13;;;1.83;;
26562;SDS011;14217;50.986;5.826;2023-07-31T15:36:21;2.58;;;1.83;;
26562;SDS011;14217;50.986;5.826;2023-07-31T15:41:23;5.35;;;1.98;;
26562;SDS011;14217;50.986;5.826;2023-07-31T15:46:26;2.42;;;1.85;;
26562;SDS011;14217;50.986;5.826;2023-07-31T15:51:29;3.10;;;1.75;;
26562;SDS011;14217;50.986;5.826;2023-07-31T15:56:31;3.33;;;2.42;;
26562;SDS011;14217;50.986;5.826;2023-07-31T16:01:33;5.68;;;1.80;;
26562;SDS011;14217;50.986;5.826;2023-07-31T16:06:35;2.05;;;1.48;;
26562;SDS011;14217;50.986;5.826;2023-07-31T16:11:38;2.00;;;1.80;;
26562;SDS011;14217;50.986;5.826;2023-07-31T16:16:40;2.97;;;1.30;;
26562;SDS011;14217;50.986;5.826;2023-07-31T16:21:43;2.95;;;1.50;;
26562;SDS011;14217;50.986;5.826;2023-07-31T16:26:45;4.20;;;1.83;;
26562;SDS011;14217;50.986;5.826;2023-07-31T16:31:47;3.58;;;1.40;;
26562;SDS011;14217;50.986;5.826;2023-07-31T16:36:58;2.75;;;1.33;;
26562;SDS011;14217;50.986;5.826;2023-07-31T16:42:03;2.33;;;1.40;;
26562;SDS011;14217;50.986;5.826;2023-07-31T16:47:05;4.95;;;1.75;;
26562;SDS011;14217;50.986;5.826;2023-07-31T16:52:08;2.55;;;1.45;;
26562;SDS011;14217;50.986;5.826;2023-07-31T16:57:10;2.28;;;1.25;;
26562;SDS011;14217;50.986;5.826;2023-07-31T17:02:12;1.60;;;1.23;;
26562;SDS011;14217;50.986;5.826;2023-07-31T17:07:14;1.60;;;1.30;;
26562;SDS011;14217;50.986;5.826;2023-07-31T17:12:17;2.22;;;1.48;;
26562;SDS011;14217;50.986;5.826;2023-07-31T17:17:19;6.15;;;1.13;;
26562;SDS011;14217;50.986;5.826;2023-07-31T17:22:25;0.80;;;0.73;;
26562;SDS011;14217;50.986;5.826;2023-07-31T17:27:47;3.65;;;1.40;;
26562;SDS011;14217;50.986;5.826;2023-07-31T17:33:09;1.40;;;1.02;;
26562;SDS011;14217;50.986;5.826;2023-07-31T17:38:11;1.10;;;0.85;;
26562;SDS011;14217;50.986;5.826;2023-07-31T17:43:13;5.15;;;0.88;;
26562;SDS011;14217;50.986;5.826;2023-07-31T17:48:15;0.65;;;0.52;;
26562;SDS011;14217;50.986;5.826;2023-07-31T17:53:18;1.33;;;0.90;;
26562;SDS011;14217;50.986;5.826;2023-07-31T17:58:21;1.63;;;1.05;;
26562;SDS011;14217;50.986;5.826;2023-07-31T18:03:23;0.95;;;0.85;;
26562;SDS011;14217;50.986;5.826;2023-07-31T18:08:27;1.23;;;0.80;;
26562;SDS011;14217;50.986;5.826;2023-07-31T18:13:29;1.85;;;0.82;;
26562;SDS011;14217;50.986;5.826;2023-07-31T18:18:31;2.47;;;0.80;;
26562;SDS011;14217;50.986;5.826;2023-07-31T18:23:34;0.85;;;0.60;;
26562;SDS011;14217;50.986;5.826;2023-07-31T18:28:36;1.20;;;0.68;;
26562;SDS011;14217;50.986;5.826;2023-07-31T18:33:39;0.55;;;0.55;;
26562;SDS011;14217;50.986;5.826;2023-07-31T18:38:41;1.42;;;0.52;;
26562;SDS011;14217;50.986;5.826;2023-07-31T18:43:43;0.50;;;0.40;;
26562;SDS011;14217;50.986;5.826;2023-07-31T18:48:45;1.23;;;0.60;;
26562;SDS011;14217;50.986;5.826;2023-07-31T18:53:48;3.40;;;0.60;;
26562;SDS011;14217;50.986;5.826;2023-07-31T18:58:50;0.60;;;0.60;;
26562;SDS011;14217;50.986;5.826;2023-07-31T19:03:54;1.38;;;1.27;;
26562;SDS011;14217;50.986;5.826;2023-07-31T19:08:56;4.68;;;0.68;;
26562;SDS011;14217;50.986;5.826;2023-07-31T19:13:59;0.85;;;0.52;;
26562;SDS011;14217;50.986;5.826;2023-07-31T19:19:01;0.52;;;0.40;;
26562;SDS011;14217;50.986;5.826;2023-07-31T19:24:04;5.47;;;0.63;;
26562;SDS011;14217;50.986;5.826;2023-07-31T19:29:06;1.35;;;0.50;;
26562;SDS011;14217;50.986;5.826;2023-07-31T19:34:09;2.15;;;0.35;;
26562;SDS011;14217;50.986;5.826;2023-07-31T19:39:11;6.13;;;0.40;;
26562;SDS011;14217;50.986;5.826;2023-07-31T19:44:13;0.60;;;0.32;;
26562;SDS011;14217;50.986;5.826;2023-07-31T19:49:15;0.35;;;0.28;;
26562;SDS011;14217;50.986;5.826;2023-07-31T19:54:17;0.63;;;0.40;;
26562;SDS011;14217;50.986;5.826;2023-07-31T19:59:20;0.32;;;0.32;;
26562;SDS011;14217;50.986;5.826;2023-07-31T20:04:22;0.38;;;0.30;;
26562;SDS011;14217;50.986;5.826;2023-07-31T20:09:24;0.73;;;0.35;;
26562;SDS011;14217;50.986;5.826;2023-07-31T20:14:26;0.82;;;0.40;;
26562;SDS011;14217;50.986;5.826;2023-07-31T20:19:28;0.50;;;0.50;;
26562;SDS011;14217;50.986;5.826;2023-07-31T20:24:30;2.55;;;0.50;;
26562;SDS011;14217;50.986;5.826;2023-07-31T20:29:32;0.43;;;0.25;;
26562;SDS011;14217;50.986;5.826;2023-07-31T20:34:34;4.85;;;0.68;;
26562;SDS011;14217;50.986;5.826;2023-07-31T20:39:37;0.68;;;0.50;;
26562;SDS011;14217;50.986;5.826;2023-07-31T20:44:39;0.60;;;0.30;;
26562;SDS011;14217;50.986;5.826;2023-07-31T20:49:41;0.30;;;0.30;;
26562;SDS011;14217;50.986;5.826;2023-07-31T20:54:43;0.85;;;0.30;;
26562;SDS011;14217;50.986;5.826;2023-07-31T20:59:47;0.70;;;0.32;;
26562;SDS011;14217;50.986;5.826;2023-07-31T21:04:49;9.27;;;0.70;;
26562;SDS011;14217;50.986;5.826;2023-07-31T21:09:51;1.00;;;0.40;;
26562;SDS011;14217;50.986;5.826;2023-07-31T21:14:53;7.07;;;0.40;;
26562;SDS011;14217;50.986;5.826;2023-07-31T21:19:55;1.95;;;0.43;;
26562;SDS011;14217;50.986;5.826;2023-07-31T21:24:57;1.02;;;0.40;;
26562;SDS011;14217;50.986;5.826;2023-07-31T21:29:59;2.15;;;0.50;;
26562;SDS011;14217;50.986;5.826;2023-07-31T21:35:01;6.20;;;0.40;;
26562;SDS011;14217;50.986;5.826;2023-07-31T21:40:04;1.23;;;0.50;;
26562;SDS011;14217;50.986;5.826;2023-07-31T21:45:06;2.28;;;0.40;;
26562;SDS011;14217;50.986;5.826;2023-07-31T21:50:09;1.40;;;0.38;;
26562;SDS011;14217;50.986;5.826;2023-07-31T21:55:11;1.50;;;0.30;;
26562;SDS011;14217;50.986;5.826;2023-07-31T22:00:14;10.63;;;0.40;;
26562;SDS011;14217;50.986;5.826;2023-07-31T22:05:16;0.43;;;0.35;;
26562;SDS011;14217;50.986;5.826;2023-07-31T22:10:17;0.85;;;0.80;;
26562;SDS011;14217;50.986;5.826;2023-07-31T22:15:20;1.25;;;0.32;;
26562;SDS011;14217;50.986;5.826;2023-07-31T22:20:22;0.65;;;0.38;;
26562;SDS011;14217;50.986;5.826;2023-07-31T22:25:24;0.30;;;0.30;;
26562;SDS011;14217;50.986;5.826;2023-07-31T22:30:26;1.05;;;0.30;;
26562;SDS011;14217;50.986;5.826;2023-07-31T22:35:29;0.45;;;0.25;;
26562;SDS011;14217;50.986;5.826;2023-07-31T22:40:31;3.00;;;0.30;;
26562;SDS011;14217;50.986;5.826;2023-07-31T22:45:33;3.33;;;0.30;;
26562;SDS011;14217;50.986;5.826;2023-07-31T22:50:35;1.15;;;0.32;;
26562;SDS011;14217;50.986;5.826;2023-07-31T22:55:37;6.15;;;0.20;;
26562;SDS011;14217;50.986;5.826;2023-07-31T23:00:39;0.88;;;0.40;;
26562;SDS011;14217;50.986;5.826;2023-07-31T23:05:41;1.05;;;0.30;;
26562;SDS011;14217;50.986;5.826;2023-07-31T23:10:48;0.40;;;0.20;;
26562;SDS011;14217;50.986;5.826;2023-07-31T23:15:50;0.63;;;0.20;;
26562;SDS011;14217;50.986;5.826;2023-07-31T23:20:53;0.32;;;0.30;;
26562;SDS011;14217;50.986;5.826;2023-07-31T23:25:57;0.57;;;0.30;;
26562;SDS011;14217;50.986;5.826;2023-07-31T23:31:02;0.45;;;0.20;;
26562;SDS011;14217;50.986;5.826;2023-07-31T23:36:09;1.27;;;0.28;;
26562;SDS011;14217;50.986;5.826;2023-07-31T23:41:12;0.30;;;0.30;;
26562;SDS011;14217;50.986;5.826;2023-07-31T23:46:14;3.95;;;0.22;;
26562;SDS011;14217;50.986;5.826;2023-07-31T23:51:16;1.10;;;0.20;;
26562;SDS011;14217;50.986;5.826;2023-07-31T23:56:18;1.88;;;0.20;;
